Date,TemperatureHighF,TemperatureAvgF,TemperatureLowF,DewpointHighF,DewpointAvgF,DewpointLowF,HumidityHigh,HumidityAvg,HumidityLow,PressureMaxIn,PressureMinIn,WindSpeedMaxMPH,WindSpeedAvgMPH,GustSpeedMaxMPH,PrecipitationSumIn
2013-7-1,75.7,64.2,51.4,57.5,52.1,39.4,97,67,48,29.85,29.75,11,4,14,0.00
2013-7-2,80.6,63.2,45.1,52.8,42.9,37.7,83,52,25,29.82,29.70,10,3,11,0.00
2013-7-3,87.1,67.9,45.9,61.3,49.9,40.5,88,57,33,29.72,29.58,11,2,11,0.00
2013-7-4,88.5,72.0,51.3,64.2,57.2,45.3,88,62,35,29.59,29.47,7,2,11,0.00
2013-7-5,89.1,76.9,64.0,68.0,62.6,57.9,81,63,43,29.49,29.40,17,4,17,0.00
2013-7-6,82.8,73.3,67.6,71.0,66.3,63.3,99,79,61,29.50,29.43,8,2,10,0.38
2013-7-7,70.7,64.5,52.5,67.7,63.1,52.3,99,95,83,29.59,29.44,11,5,14,0.01
2013-7-8,86.4,62.7,52.3,69.4,59.6,52.1,99,91,57,29.64,29.55,8,2,10,0.00
2013-7-9,77.7,63.3,53.8,69.2,60.9,53.5,99,92,74,29.60,29.38,7,3,10,0.18
2013-7-10,81.1,66.9,55.4,58.9,56.3,53.7,97,71,44,29.64,29.48,8,4,12,0.00
2013-7-11,86.4,69.7,51.4,66.4,57.9,51.2,99,71,41,29.71,29.57,5,2,10,0.00
2013-7-12,88.5,75.2,64.0,68.1,62.8,57.4,82,67,49,29.59,29.49,14,4,16,0.00
2013-7-13,74.3,69.2,63.9,69.0,66.4,62.3,99,91,67,29.67,29.51,7,2,10,0.26
2013-7-14,79.5,69.8,66.2,69.5,66.0,62.8,99,88,68,29.80,29.66,4,2,8,0.14
2013-7-15,87.3,71.2,63.9,73.7,67.4,63.3,99,89,64,29.84,29.77,8,3,12,0.07
2013-7-16,93.6,77.8,61.3,76.0,68.5,61.1,99,76,47,29.78,29.72,10,3,16,0.00
2013-7-17,94.3,81.5,69.1,73.4,69.6,65.7,89,69,47,29.79,29.69,10,4,17,0.00
2013-7-18,95.4,80.7,66.9,75.8,71.0,65.7,99,75,51,29.70,29.25,17,4,20,0.01
2013-7-19,83.1,73.7,65.7,71.7,63.6,56.5,99,73,45,29.43,29.22,13,5,17,0.04
2013-7-20,75.2,63.4,51.4,56.5,50.4,47.4,88,64,44,29.59,29.43,8,3,13,0.00
2013-7-21,75.2,59.6,47.8,60.1,51.6,45.6,99,76,57,29.60,29.42,12,5,14,0.00
2013-7-22,82.8,66.5,53.6,71.9,59.1,48.6,99,79,52,29.42,29.21,13,4,18,0.00
2013-7-23,78.4,63.0,50.7,55.6,52.2,48.8,93,71,44,29.60,29.40,6,2,9,0.00
2013-7-24,79.2,64.3,48.7,60.0,54.8,47.7,98,74,47,29.64,29.51,5,2,11,0.00
2013-7-25,82.9,65.8,54.5,65.9,59.4,54.2,99,82,49,29.94,29.47,8,3,15,0.15
2013-7-26,62.6,55.0,48.2,62.3,53.0,45.6,99,93,77,30.10,27.39,11,2,11,0.12
2013-7-27,54.7,49.7,46.2,51.6,48.4,45.4,99,95,85,30.07,29.89,9,4,12,0.30
2013-7-28,71.6,56.7,48.6,58.0,51.7,48.3,99,85,55,30.04,29.93,8,2,10,0.00
2013-7-29,80.6,63.6,46.6,63.3,53.6,46.3,99,74,44,30.11,30.04,4,1,5,0.00
2013-7-30,75.2,63.9,56.5,65.0,59.8,53.0,99,87,68,30.10,30.02,5,1,8,0.02
2013-7-31,78.8,67.3,57.6,65.6,58.0,52.1,99,75,45,30.03,29.94,12,4,15,0.11